Time,TemperatureF,DewpointF,PressureIn,WindDirection,WindDirectionDegrees,WindSpeedMPH,WindSpeedGustMPH,Humidity,HourlyPrecipIn,Conditions,Clouds,dailyrainin,SoftwareType,DateUTC
2013-06-06 00:02:00,55.0,50.0,29.93,SSE,154,0.0,0.0,84,0.00,,,0.21,,2013-06-06 05:02:00,
2013-06-06 00:12:00,55.0,50.0,29.93,SSE,154,0.0,0.0,84,0.00,,,0.21,,2013-06-06 05:12:00,
2013-06-06 00:22:00,55.0,51.0,29.94,SSE,160,0.0,0.0,85,0.01,,,0.22,,2013-06-06 05:22:00,
2013-06-06 00:32:00,54.0,51.0,29.93,SE,131,0.0,0.0,88,0.01,,,0.22,,2013-06-06 05:32:00,
2013-06-06 00:42:00,54.0,51.0,29.93,SE,131,0.0,0.0,88,0.01,,,0.22,,2013-06-06 05:42:00,
2013-06-06 00:52:00,54.0,51.0,29.93,NNE,23,0.0,0.0,89,0.01,,,0.22,,2013-06-06 05:52:00,
2013-06-06 01:02:00,54.0,51.0,29.92,ENE,58,0.0,0.0,90,0.01,,,0.22,,2013-06-06 06:02:00,
2013-06-06 01:12:00,54.0,51.0,29.92,ENE,58,0.0,0.0,90,0.01,,,0.22,,2013-06-06 06:12:00,
2013-06-06 01:22:00,54.0,51.0,29.91,ENE,65,0.0,0.0,90,0.00,,,0.22,,2013-06-06 06:22:00,
2013-06-06 01:32:00,55.0,52.0,29.91,ENE,71,0.0,0.0,89,0.00,,,0.22,,2013-06-06 06:32:00,
2013-06-06 01:42:00,55.0,52.0,29.91,ENE,71,0.0,0.0,89,0.00,,,0.22,,2013-06-06 06:42:00,
2013-06-06 01:52:00,55.0,52.0,29.91,NE,54,0.0,0.0,89,0.00,,,0.22,,2013-06-06 06:52:00,
2013-06-06 02:02:00,55.0,52.0,29.91,SE,131,0.0,0.0,89,0.00,,,0.22,,2013-06-06 07:02:00,
2013-06-06 02:12:00,55.0,52.0,29.91,SE,131,0.0,0.0,89,0.00,,,0.22,,2013-06-06 07:12:00,
2013-06-06 02:22:00,55.0,52.0,29.90,NE,43,0.0,0.0,88,0.00,,,0.22,,2013-06-06 07:22:00,
2013-06-06 02:32:00,55.0,52.0,29.89,East,80,0.0,0.0,88,0.00,,,0.22,,2013-06-06 07:32:00,
2013-06-06 02:42:00,55.0,52.0,29.89,East,80,0.0,0.0,88,0.00,,,0.22,,2013-06-06 07:42:00,
2013-06-06 02:52:00,55.0,52.0,29.89,East,81,0.0,0.0,88,0.00,,,0.22,,2013-06-06 07:52:00,
2013-06-06 03:02:00,55.0,52.0,29.88,SSE,166,0.0,0.0,89,0.00,,,0.22,,2013-06-06 08:02:00,
2013-06-06 03:12:00,55.0,52.0,29.88,SSE,166,0.0,0.0,89,0.00,,,0.22,,2013-06-06 08:12:00,
2013-06-06 03:22:00,55.0,52.0,29.88,SSE,147,0.0,0.0,89,0.00,,,0.22,,2013-06-06 08:22:00,
2013-06-06 03:32:00,55.0,52.0,29.88,SE,137,0.0,0.0,90,0.01,,,0.23,,2013-06-06 08:32:00,
2013-06-06 03:42:00,55.0,52.0,29.87,ESE,106,0.0,0.0,91,0.01,,,0.23,,2013-06-06 08:42:00,
2013-06-06 03:52:00,55.0,52.0,29.87,ESE,106,0.0,0.0,91,0.01,,,0.23,,2013-06-06 08:52:00,
2013-06-06 04:02:00,55.0,52.0,29.87,ENE,64,0.0,0.0,91,0.02,,,0.24,,2013-06-06 09:02:00,
2013-06-06 04:12:00,55.0,52.0,29.87,ENE,64,0.0,0.0,91,0.02,,,0.24,,2013-06-06 09:12:00,
2013-06-06 04:22:00,55.0,53.0,29.87,NNE,28,0.0,0.0,92,0.02,,,0.24,,2013-06-06 09:22:00,
2013-06-06 04:33:00,55.0,53.0,29.86,East,84,0.0,0.0,92,0.01,,,0.24,,2013-06-06 09:33:00,
2013-06-06 04:43:00,55.0,53.0,29.86,East,84,0.0,0.0,92,0.01,,,0.24,,2013-06-06 09:43:00,
2013-06-06 04:53:00,55.0,53.0,29.86,East,84,0.0,0.0,92,0.01,,,0.24,,2013-06-06 09:53:00,
2013-06-06 05:03:00,55.0,53.0,29.86,ENE,57,0.0,0.0,92,0.00,,,0.24,,2013-06-06 10:03:00,
2013-06-06 05:12:00,55.0,53.0,29.86,ENE,57,0.0,0.0,92,0.00,,,0.24,,2013-06-06 10:12:00,
2013-06-06 05:23:00,55.0,53.0,29.86,NE,49,0.0,0.0,92,0.01,,,0.25,,2013-06-06 10:23:00,
2013-06-06 05:33:00,55.0,53.0,29.86,SSE,156,0.0,0.0,93,0.01,,,0.25,,2013-06-06 10:33:00,
2013-06-06 05:42:00,55.0,53.0,29.86,SSE,156,0.0,0.0,93,0.01,,,0.25,,2013-06-06 10:42:00,
2013-06-06 05:52:00,55.0,53.0,29.86,East,94,0.0,0.0,93,0.01,,,0.25,,2013-06-06 10:52:00,
2013-06-06 06:02:00,55.0,53.0,29.87,ESE,110,0.0,0.0,93,0.01,,,0.25,,2013-06-06 11:02:00,
2013-06-06 06:12:00,55.0,53.0,29.87,ESE,110,0.0,0.0,93,0.01,,,0.25,,2013-06-06 11:12:00,
2013-06-06 06:22:00,55.0,53.0,29.88,ESE,110,0.0,0.0,92,0.01,,,0.26,,2013-06-06 11:22:00,
2013-06-06 06:32:00,55.0,53.0,29.87,ESE,110,0.0,0.0,93,0.06,,,0.31,,2013-06-06 11:32:00,
2013-06-06 06:42:00,55.0,53.0,29.87,ESE,110,0.0,0.0,93,0.06,,,0.31,,2013-06-06 11:42:00,
2013-06-06 06:52:00,55.0,53.0,29.88,ESE,110,0.0,0.0,93,0.11,,,0.36,,2013-06-06 11:52:00,
2013-06-06 07:02:00,55.0,53.0,29.88,ESE,110,0.0,0.0,94,0.22,,,0.47,,2013-06-06 12:02:00,
2013-06-06 07:12:00,55.0,53.0,29.88,ESE,110,0.0,0.0,94,0.22,,,0.47,,2013-06-06 12:12:00,
2013-06-06 07:22:00,55.0,54.0,29.88,ESE,110,0.0,0.0,95,0.26,,,0.52,,2013-06-06 12:22:00,
2013-06-06 07:33:00,54.0,53.0,29.89,ESE,110,0.0,0.0,95,0.31,,,0.62,,2013-06-06 12:33:00,
2013-06-06 07:42:00,54.0,53.0,29.89,ESE,110,0.0,0.0,95,0.30,,,0.66,,2013-06-06 12:42:00,
2013-06-06 07:52:00,54.0,53.0,29.89,ESE,110,0.0,0.0,95,0.30,,,0.66,,2013-06-06 12:52:00,
2013-06-06 08:03:00,54.0,53.0,29.89,ESE,110,0.0,0.0,96,0.25,,,0.72,,2013-06-06 13:03:00,
2013-06-06 08:12:00,54.0,53.0,29.89,ESE,110,0.0,0.0,96,0.25,,,0.72,,2013-06-06 13:12:00,
2013-06-06 08:22:00,54.0,53.0,29.90,ESE,110,0.0,0.0,96,0.22,,,0.74,,2013-06-06 13:22:00,
2013-06-06 08:32:00,54.0,53.0,29.90,ESE,110,0.0,0.0,96,0.15,,,0.77,,2013-06-06 13:32:00,
2013-06-06 08:43:00,54.0,53.0,29.90,ESE,110,0.0,0.0,96,0.15,,,0.77,,2013-06-06 13:43:00,
2013-06-06 08:52:00,54.0,53.0,29.91,ESE,110,0.0,0.0,96,0.12,,,0.78,,2013-06-06 13:52:00,
2013-06-06 09:03:00,55.0,54.0,29.90,ESE,110,0.0,0.0,97,0.06,,,0.78,,2013-06-06 14:03:00,
2013-06-06 09:12:00,55.0,54.0,29.90,ESE,110,0.0,0.0,97,0.06,,,0.78,,2013-06-06 14:12:00,
2013-06-06 09:22:00,55.0,54.0,29.91,ESE,110,0.0,0.0,97,0.04,,,0.78,,2013-06-06 14:22:00,
2013-06-06 09:33:00,55.0,54.0,29.91,ESE,110,0.0,0.0,97,0.01,,,0.78,,2013-06-06 14:33:00,
2013-06-06 09:43:00,55.0,54.0,29.91,ESE,110,0.0,0.0,97,0.01,,,0.78,,2013-06-06 14:43:00,
2013-06-06 09:52:00,55.0,54.0,29.91,ESE,111,0.0,0.0,97,0.00,,,0.78,,2013-06-06 14:52:00,
2013-06-06 10:03:00,55.0,54.0,29.91,ESE,111,0.0,0.0,97,0.00,,,0.78,,2013-06-06 15:03:00,
2013-06-06 10:13:00,55.0,54.0,29.91,ESE,111,0.0,0.0,97,0.00,,,0.78,,2013-06-06 15:13:00,
2013-06-06 10:23:00,56.0,55.0,29.91,ESE,111,0.0,0.0,97,0.00,,,0.78,,2013-06-06 15:23:00,
2013-06-06 10:33:00,56.0,55.0,29.91,ESE,109,0.0,0.0,96,0.00,,,0.78,,2013-06-06 15:33:00,
2013-06-06 10:43:00,56.0,55.0,29.91,ESE,109,0.0,0.0,96,0.00,,,0.78,,2013-06-06 15:43:00,
2013-06-06 10:53:00,56.0,55.0,29.90,ESE,109,0.0,0.0,96,0.00,,,0.78,,2013-06-06 15:53:00,
2013-06-06 11:03:00,57.0,56.0,29.91,ESE,109,0.0,0.0,96,0.00,,,0.78,,2013-06-06 16:03:00,
2013-06-06 11:12:00,57.0,56.0,29.91,ESE,109,0.0,0.0,96,0.00,,,0.78,,2013-06-06 16:12:00,
2013-06-06 11:23:00,57.0,56.0,29.90,ESE,108,0.0,0.0,96,0.00,,,0.78,,2013-06-06 16:23:00,
2013-06-06 11:33:00,58.0,57.0,29.90,ESE,107,0.0,0.0,95,0.00,,,0.78,,2013-06-06 16:33:00,
2013-06-06 11:43:00,58.0,57.0,29.90,ESE,107,0.0,0.0,95,0.00,,,0.78,,2013-06-06 16:43:00,
2013-06-06 11:52:00,58.0,57.0,29.90,ESE,106,0.0,0.0,95,0.00,,,0.78,,2013-06-06 16:52:00,
2013-06-06 12:03:00,58.0,56.0,29.90,ESE,105,0.0,0.0,93,0.00,,,0.77,,2013-06-06 17:03:00,
2013-06-06 12:13:00,58.0,56.0,29.90,ESE,105,0.0,0.0,93,0.00,,,0.77,,2013-06-06 17:13:00,
2013-06-06 12:23:00,59.0,57.0,29.90,NE,56,0.0,0.0,92,0.00,,,0.77,,2013-06-06 17:23:00,
2013-06-06 12:33:00,59.0,56.0,29.89,ENE,71,0.0,0.0,91,0.00,,,0.77,,2013-06-06 17:33:00,
2013-06-06 12:43:00,59.0,56.0,29.89,ENE,71,0.0,0.0,91,0.00,,,0.77,,2013-06-06 17:43:00,
2013-06-06 12:52:00,59.0,56.0,29.89,ESE,121,0.0,0.0,90,0.00,,,0.77,,2013-06-06 17:52:00,
2013-06-06 13:03:00,59.0,55.0,29.89,East,91,0.0,0.0,88,0.00,,,0.77,,2013-06-06 18:03:00,
2013-06-06 13:13:00,59.0,55.0,29.89,East,91,0.0,0.0,88,0.00,,,0.77,,2013-06-06 18:13:00,
2013-06-06 13:23:00,59.0,56.0,29.89,East,91,0.0,0.0,89,0.00,,,0.76,,2013-06-06 18:23:00,
2013-06-06 13:33:00,59.0,56.0,29.89,ENE,71,0.0,0.0,90,0.00,,,0.75,,2013-06-06 18:33:00,
2013-06-06 13:43:00,59.0,56.0,29.89,ENE,71,0.0,0.0,90,0.00,,,0.75,,2013-06-06 18:43:00,
2013-06-06 13:52:00,60.0,57.0,29.88,ENE,59,0.0,0.0,89,0.00,,,0.75,,2013-06-06 18:52:00,
2013-06-06 14:03:00,61.0,57.0,29.89,NE,47,0.0,0.0,86,0.00,,,0.75,,2013-06-06 19:03:00,
2013-06-06 14:12:00,61.0,57.0,29.89,NE,47,0.0,0.0,86,0.00,,,0.75,,2013-06-06 19:12:00,
2013-06-06 14:23:00,62.0,57.0,29.89,East,91,0.0,0.0,84,0.00,,,0.75,,2013-06-06 19:23:00,
2013-06-06 14:33:00,62.0,57.0,29.89,East,90,0.0,0.0,83,0.00,,,0.75,,2013-06-06 19:33:00,
2013-06-06 14:43:00,62.0,57.0,29.89,East,90,0.0,0.0,83,0.00,,,0.75,,2013-06-06 19:43:00,
2013-06-06 14:52:00,62.0,57.0,29.90,ESE,108,0.0,0.0,83,0.00,,,0.75,,2013-06-06 19:52:00,
2013-06-06 15:03:00,62.0,57.0,29.90,ENE,68,0.0,0.0,84,0.00,,,0.74,,2013-06-06 20:03:00,
2013-06-06 15:13:00,62.0,57.0,29.90,ENE,68,0.0,0.0,84,0.00,,,0.74,,2013-06-06 20:13:00,
2013-06-06 15:23:00,61.0,56.0,29.90,ENE,68,0.0,0.0,84,0.00,,,0.74,,2013-06-06 20:23:00,
2013-06-06 15:33:00,61.0,56.0,29.90,NE,53,0.0,0.0,85,0.00,,,0.74,,2013-06-06 20:33:00,
2013-06-06 15:42:00,61.0,56.0,29.90,NE,53,0.0,0.0,85,0.00,,,0.74,,2013-06-06 20:42:00,
2013-06-06 15:52:00,62.0,57.0,29.89,NE,52,0.0,0.0,85,0.00,,,0.74,,2013-06-06 20:52:00,
2013-06-06 16:03:00,63.0,57.0,29.89,NNE,30,0.0,0.0,82,0.00,,,0.74,,2013-06-06 21:03:00,
2013-06-06 16:13:00,63.0,57.0,29.89,NNE,30,0.0,0.0,82,0.00,,,0.74,,2013-06-06 21:13:00,
2013-06-06 16:23:00,63.0,58.0,29.90,ENE,75,0.0,0.0,83,0.00,,,0.74,,2013-06-06 21:23:00,
2013-06-06 16:33:00,62.0,57.0,29.90,NE,35,0.0,0.0,83,0.00,,,0.72,,2013-06-06 21:33:00,
2013-06-06 16:43:00,62.0,57.0,29.90,NE,35,0.0,0.0,83,0.00,,,0.72,,2013-06-06 21:43:00,
2013-06-06 16:53:00,63.0,58.0,29.89,SE,130,0.0,0.0,83,0.00,,,0.71,,2013-06-06 21:53:00,
2013-06-06 17:03:00,63.0,57.0,29.89,NNE,27,0.0,0.0,80,0.00,,,0.70,,2013-06-06 22:03:00,
2013-06-06 17:13:00,63.0,57.0,29.89,NNE,27,0.0,0.0,80,0.00,,,0.70,,2013-06-06 22:13:00,
2013-06-06 17:23:00,63.0,56.0,29.90,ENE,67,0.0,0.0,78,0.00,,,0.69,,2013-06-06 22:23:00,
2013-06-06 17:33:00,62.0,55.0,29.90,NNE,22,0.0,0.0,79,0.00,,,0.67,,2013-06-06 22:33:00,
2013-06-06 17:43:00,62.0,55.0,29.90,NNE,22,0.0,0.0,79,0.00,,,0.67,,2013-06-06 22:43:00,
2013-06-06 17:53:00,62.0,55.0,29.90,NE,46,0.0,0.0,79,0.00,,,0.66,,2013-06-06 22:53:00,
2013-06-06 18:02:00,62.0,56.0,29.90,NE,49,0.0,0.0,80,0.00,,,0.66,,2013-06-06 23:02:00,
2013-06-06 18:12:00,62.0,56.0,29.90,NE,49,0.0,0.0,80,0.00,,,0.66,,2013-06-06 23:12:00,
2013-06-06 18:22:00,61.0,54.0,29.89,NE,49,0.0,0.0,79,0.00,,,0.66,,2013-06-06 23:22:00,
2013-06-06 18:33:00,61.0,55.0,29.90,NE,52,0.0,0.0,82,0.00,,,0.66,,2013-06-06 23:33:00,
2013-06-06 18:42:00,61.0,55.0,29.90,NE,52,0.0,0.0,82,0.00,,,0.66,,2013-06-06 23:42:00,
2013-06-06 18:52:00,61.0,56.0,29.91,NE,52,0.0,0.0,83,0.00,,,0.66,,2013-06-06 23:52:00,
2013-06-06 19:02:00,60.0,55.0,29.91,NE,52,0.0,0.0,84,0.00,,,0.66,,2013-06-07 00:02:00,
2013-06-06 19:12:00,60.0,55.0,29.91,NE,52,0.0,0.0,84,0.00,,,0.66,,2013-06-07 00:12:00,
2013-06-06 19:22:00,60.0,55.0,29.91,NE,51,0.0,0.0,84,0.00,,,0.66,,2013-06-07 00:22:00,
2013-06-06 19:32:00,59.0,54.0,29.91,NE,51,0.0,0.0,82,0.00,,,0.66,,2013-06-07 00:32:00,
2013-06-06 19:42:00,59.0,54.0,29.91,NE,51,0.0,0.0,82,0.00,,,0.66,,2013-06-07 00:42:00,
2013-06-06 19:52:00,59.0,53.0,29.91,NE,51,0.0,0.0,80,0.00,,,0.66,,2013-06-07 00:52:00,
2013-06-06 20:02:00,59.0,53.0,29.91,NE,51,0.0,0.0,81,0.00,,,0.65,,2013-06-07 01:02:00,
2013-06-06 20:12:00,59.0,53.0,29.91,NE,51,0.0,0.0,81,0.00,,,0.65,,2013-06-07 01:12:00,
2013-06-06 20:22:00,59.0,54.0,29.91,NE,51,0.0,0.0,84,0.00,,,0.63,,2013-06-07 01:22:00,
2013-06-06 20:32:00,59.0,54.0,29.91,NE,53,0.0,0.0,83,0.00,,,0.61,,2013-06-07 01:32:00,
2013-06-06 20:42:00,59.0,54.0,29.91,NE,53,0.0,0.0,83,0.00,,,0.61,,2013-06-07 01:42:00,
2013-06-06 20:52:00,58.0,53.0,29.90,NE,52,0.0,0.0,82,0.00,,,0.61,,2013-06-07 01:52:00,
2013-06-06 21:02:00,58.0,53.0,29.90,NE,52,0.0,0.0,83,0.00,,,0.60,,2013-06-07 02:02:00,
2013-06-06 21:12:00,58.0,53.0,29.90,NE,52,0.0,0.0,83,0.00,,,0.60,,2013-06-07 02:12:00,
2013-06-06 21:22:00,58.0,53.0,29.90,NE,52,0.0,0.0,83,0.00,,,0.59,,2013-06-07 02:22:00,
2013-06-06 21:32:00,57.0,52.0,29.91,NE,52,0.0,0.0,84,0.00,,,0.57,,2013-06-07 02:32:00,
2013-06-06 21:42:00,57.0,52.0,29.91,NE,52,0.0,0.0,84,0.00,,,0.57,,2013-06-07 02:42:00,
2013-06-06 21:52:00,57.0,53.0,29.91,NE,52,0.0,0.0,85,0.00,,,0.57,,2013-06-07 02:52:00,
2013-06-06 22:02:00,57.0,53.0,29.92,NE,52,0.0,0.0,86,0.00,,,0.57,,2013-06-07 03:02:00,
2013-06-06 22:12:00,57.0,53.0,29.92,NE,52,0.0,0.0,86,0.00,,,0.57,,2013-06-07 03:12:00,
2013-06-06 22:22:00,57.0,53.0,29.92,NE,52,0.0,0.0,86,0.00,,,0.57,,2013-06-07 03:22:00,
2013-06-06 22:33:00,57.0,53.0,29.93,NE,52,0.0,0.0,87,0.00,,,0.57,,2013-06-07 03:33:00,
2013-06-06 22:43:00,57.0,53.0,29.93,NE,52,0.0,0.0,87,0.00,,,0.57,,2013-06-07 03:43:00,
2013-06-06 22:53:00,57.0,53.0,29.93,NE,53,0.0,0.0,86,0.00,,,0.57,,2013-06-07 03:53:00,
2013-06-06 23:03:00,57.0,53.0,29.92,NE,52,0.0,0.0,85,0.00,,,0.57,,2013-06-07 04:03:00,
2013-06-06 23:12:00,57.0,53.0,29.92,NE,52,0.0,0.0,85,0.00,,,0.57,,2013-06-07 04:12:00,
2013-06-06 23:23:00,57.0,52.0,29.92,NE,52,0.0,0.0,84,0.00,,,0.57,,2013-06-07 04:23:00,
2013-06-06 23:33:00,57.0,52.0,29.92,NE,53,0.0,0.0,84,0.00,,,0.57,,2013-06-07 04:33:00,
2013-06-06 23:42:00,57.0,52.0,29.92,NE,53,0.0,0.0,84,0.00,,,0.57,,2013-06-07 04:42:00,
2013-06-06 23:53:00,57.0,52.0,29.92,NE,52,0.0,0.0,84,0.00,,,0.57,,2013-06-07 04:53:00,